createdAt,value
2022-08-23T00:01:14.597Z,60.18
2022-08-23T00:03:17.624Z,60.55
2022-08-23T00:05:20.525Z,60.90
2022-08-23T00:07:23.816Z,60.84
2022-08-23T00:09:29.198Z,60.76
2022-08-23T00:11:49.098Z,60.78
2022-08-23T00:13:51.957Z,60.61
2022-08-23T00:15:54.880Z,61.05
2022-08-23T00:17:58.031Z,61.22
2022-08-23T00:20:00.691Z,60.54
2022-08-23T00:22:03.493Z,60.86
2022-08-23T00:24:12.277Z,61.06
2022-08-23T00:26:16.232Z,60.97
2022-08-23T00:28:19.725Z,60.73
2022-08-23T00:30:22.458Z,60.94
2022-08-23T00:32:29.320Z,60.72
2022-08-23T00:34:32.144Z,61.06
2022-08-23T00:36:34.891Z,60.59
2022-08-23T00:38:38.063Z,60.50
2022-08-23T00:40:43.165Z,60.46
2022-08-23T00:43:13.064Z,60.53
2022-08-23T00:45:38.972Z,60.36
2022-08-23T00:47:42.955Z,60.53
2022-08-23T00:50:23.434Z,60.10
2022-08-23T00:52:38.769Z,60.30
2022-08-23T00:54:43.837Z,60.41
2022-08-23T00:56:46.596Z,60.45
2022-08-23T00:58:50.111Z,59.96
2022-08-23T01:00:55.470Z,60.28
2022-08-23T01:02:58.513Z,60.36
2022-08-23T01:05:02.178Z,60.18
2022-08-23T01:07:16.540Z,59.85
2022-08-23T01:09:21.582Z,59.61
2022-08-23T01:11:35.676Z,59.68
2022-08-23T01:13:58.673Z,59.62
2022-08-23T01:16:10.578Z,59.53
2022-08-23T01:18:17.322Z,59.75
2022-08-23T01:20:26.796Z,59.96
2022-08-23T01:22:45.228Z,59.79
2022-08-23T01:25:05.735Z,59.86
2022-08-23T01:27:13.703Z,59.86
2022-08-23T01:29:17.518Z,59.52
2022-08-23T01:31:22.894Z,59.74
2022-08-23T01:33:25.669Z,59.36
2022-08-23T01:35:38.303Z,59.52
2022-08-23T01:37:42.469Z,59.77
2022-08-23T01:39:45.607Z,59.59
2022-08-23T01:41:48.319Z,59.58
2022-08-23T01:43:52.021Z,59.33
2022-08-23T01:45:54.942Z,59.25
2022-08-23T01:47:58.169Z,59.37
2022-08-23T01:50:00.794Z,59.54
2022-08-23T01:52:04.092Z,59.35
2022-08-23T01:54:06.697Z,59.39
2022-08-23T01:56:09.727Z,59.11
2022-08-23T01:58:12.602Z,59.15
2022-08-23T02:00:15.634Z,59.13
2022-08-23T02:02:18.263Z,59.13
2022-08-23T02:04:22.548Z,59.04
2022-08-23T02:06:25.213Z,58.93
2022-08-23T02:08:46.877Z,59.01
2022-08-23T02:10:49.655Z,58.93
2022-08-23T02:12:52.327Z,58.50
2022-08-23T02:15:16.174Z,58.77
2022-08-23T02:17:18.804Z,58.74
2022-08-23T02:19:22.153Z,59.06
2022-08-23T02:21:26.412Z,59.35
2022-08-23T02:23:29.380Z,59.32
2022-08-23T02:25:32.054Z,59.32
2022-08-23T02:27:35.420Z,59.15
2022-08-23T02:29:39.352Z,58.89
2022-08-23T02:31:44.391Z,58.55
2022-08-23T02:33:46.959Z,58.27
2022-08-23T02:35:50.206Z,58.17
2022-08-23T02:37:56.053Z,58.06
2022-08-23T02:39:58.671Z,58.56
2022-08-23T02:42:01.598Z,59.19
2022-08-23T02:44:06.001Z,60.05
2022-08-23T02:46:08.578Z,59.27
2022-08-23T02:48:11.329Z,58.74
2022-08-23T02:50:14.227Z,58.57
2022-08-23T02:52:16.861Z,58.78
2022-08-23T02:54:19.430Z,59.01
2022-08-23T02:56:22.214Z,60.78
2022-08-23T02:58:25.607Z,61.03
2022-08-23T03:00:28.932Z,60.73
2022-08-23T03:02:32.060Z,61.50
2022-08-23T03:04:35.916Z,61.51
2022-08-23T03:06:39.341Z,61.76
2022-08-23T03:08:42.577Z,61.87
2022-08-23T03:10:47.564Z,61.22
2022-08-23T03:12:50.859Z,60.90
2022-08-23T03:14:53.516Z,60.99
2022-08-23T03:16:58.338Z,61.16
2022-08-23T03:19:02.565Z,61.09
2022-08-23T03:21:06.595Z,61.36
2022-08-23T03:23:11.174Z,60.93
2022-08-23T03:25:13.772Z,60.26
2022-08-23T03:27:18.284Z,60.27
2022-08-23T03:29:20.970Z,60.46
2022-08-23T03:31:23.609Z,60.35
2022-08-23T03:33:26.291Z,60.19
2022-08-23T03:35:29.620Z,60.49
2022-08-23T03:37:32.390Z,59.83
2022-08-23T03:39:34.994Z,58.66
2022-08-23T03:41:37.574Z,57.86
2022-08-23T03:43:40.431Z,57.36
2022-08-23T03:45:43.209Z,58.14
2022-08-23T03:47:46.099Z,57.50
2022-08-23T03:49:48.781Z,57.94
2022-08-23T03:51:51.318Z,58.33
2022-08-23T03:53:53.991Z,57.44
2022-08-23T03:55:56.720Z,58.64
2022-08-23T03:58:00.101Z,58.13
2022-08-23T04:00:03.185Z,58.25
2022-08-23T04:02:07.950Z,58.49
2022-08-23T04:04:10.988Z,58.03
2022-08-23T04:06:13.638Z,57.02
2022-08-23T04:08:23.256Z,56.94
2022-08-23T04:10:36.012Z,57.29
2022-08-23T04:12:38.536Z,57.75
2022-08-23T04:14:41.147Z,58.07
2022-08-23T04:16:44.629Z,57.42
2022-08-23T04:18:47.251Z,57.10
2022-08-23T04:20:50.776Z,56.47
2022-08-23T04:22:54.772Z,55.17
2022-08-23T04:24:57.386Z,55.24
2022-08-23T04:26:59.964Z,54.45
2022-08-23T04:29:03.118Z,54.83
2022-08-23T04:31:06.156Z,54.49
2022-08-23T04:33:09.935Z,54.33
2022-08-23T04:35:14.075Z,54.75
2022-08-23T04:37:16.683Z,54.40
2022-08-23T04:39:19.565Z,54.89
2022-08-23T04:41:40.732Z,53.82
2022-08-23T04:43:44.258Z,54.81
2022-08-23T04:45:47.337Z,55.20
2022-08-23T04:47:49.941Z,56.37
2022-08-23T04:49:52.502Z,56.72
2022-08-23T04:51:55.754Z,56.70
2022-08-23T04:53:58.477Z,56.35
2022-08-23T04:56:02.450Z,55.65
2022-08-23T04:58:08.264Z,55.57
2022-08-23T05:00:13.697Z,53.94
2022-08-23T05:02:16.262Z,52.56
2022-08-23T05:04:19.145Z,53.73
2022-08-23T05:06:22.307Z,53.74
2022-08-23T05:08:26.168Z,54.18
2022-08-23T05:10:28.979Z,53.62
2022-08-23T05:12:31.564Z,53.96
2022-08-23T05:14:34.075Z,52.88
2022-08-23T05:16:36.684Z,53.42
2022-08-23T05:18:39.303Z,53.15
2022-08-23T05:20:41.867Z,55.09
2022-08-23T05:22:44.856Z,54.92
2022-08-23T05:24:47.394Z,55.36
2022-08-23T05:26:50.022Z,56.00
2022-08-23T05:28:54.509Z,53.65
2022-08-23T05:31:15.986Z,54.37
2022-08-23T05:33:19.533Z,52.42
2022-08-23T05:35:22.077Z,50.82
2022-08-23T05:37:24.710Z,50.59
2022-08-23T05:39:36.691Z,49.78
2022-08-23T05:41:40.462Z,48.12
2022-08-23T05:43:43.838Z,49.21
2022-08-23T05:45:47.201Z,47.03
2022-08-23T05:47:49.881Z,47.76
2022-08-23T05:49:53.104Z,48.26
2022-08-23T05:51:56.919Z,48.50
2022-08-23T05:54:04.161Z,48.35
2022-08-23T05:56:41.686Z,46.34
2022-08-23T05:58:45.358Z,46.51
2022-08-23T06:00:47.957Z,49.20
2022-08-23T06:02:50.637Z,49.06
2022-08-23T06:04:57.143Z,48.84
2022-08-23T06:07:00.074Z,47.62
2022-08-23T06:09:05.696Z,49.89
2022-08-23T06:11:14.870Z,46.08
2022-08-23T06:13:17.417Z,44.49
2022-08-23T06:15:20.014Z,46.57
2022-08-23T06:17:22.608Z,47.08
2022-08-23T06:19:25.189Z,47.73
2022-08-23T06:21:28.067Z,47.45
2022-08-23T06:23:30.946Z,48.70
2022-08-23T06:25:37.727Z,48.62
2022-08-23T06:27:40.254Z,48.05
2022-08-23T06:29:43.148Z,44.84
2022-08-23T06:31:50.273Z,44.00
2022-08-23T06:33:53.519Z,43.91
2022-08-23T06:36:06.342Z,44.31
2022-08-23T06:38:08.976Z,43.75
2022-08-23T06:40:11.614Z,42.46
2022-08-23T06:42:37.997Z,42.47
2022-08-23T06:44:39.107Z,43.72
2022-08-23T06:46:43.512Z,43.14
2022-08-23T06:48:47.635Z,42.92
2022-08-23T06:50:50.459Z,43.87
2022-08-23T06:52:56.246Z,44.54
2022-08-23T06:54:59.425Z,44.10
2022-08-23T06:57:03.473Z,42.34
2022-08-23T06:59:07.569Z,42.46
2022-08-23T07:01:43.987Z,43.51
2022-08-23T07:03:42.037Z,41.90
2022-08-23T07:05:44.774Z,42.68
2022-08-23T07:07:47.610Z,43.38
2022-08-23T07:09:50.320Z,42.17
2022-08-23T07:11:53.202Z,42.97
2022-08-23T07:13:56.210Z,42.39
2022-08-23T07:16:00.554Z,40.87
2022-08-23T07:18:03.834Z,40.35
2022-08-23T07:20:07.092Z,41.18
2022-08-23T07:22:11.190Z,40.60
2022-08-23T07:24:14.174Z,39.47
2022-08-23T07:26:18.194Z,39.85
2022-08-23T07:28:21.223Z,38.65
2022-08-23T07:30:23.974Z,37.62
2022-08-23T07:32:26.817Z,38.57
2022-08-23T07:34:29.591Z,38.51
2022-08-23T07:36:33.845Z,36.30
2022-08-23T07:38:37.215Z,37.93
2022-08-23T07:40:40.853Z,37.41
2022-08-23T07:42:43.612Z,38.91
2022-08-23T07:44:46.304Z,38.76
2022-08-23T07:46:49.518Z,35.40
2022-08-23T07:48:54.678Z,35.88
2022-08-23T07:51:02.090Z,37.96
2022-08-23T07:53:04.979Z,39.38
2022-08-23T07:55:10.625Z,37.82
2022-08-23T07:57:14.294Z,36.03
2022-08-23T07:59:17.030Z,37.53
2022-08-23T08:01:23.835Z,39.21
2022-08-23T08:03:26.582Z,37.71
2022-08-23T08:05:32.790Z,38.21
2022-08-23T08:07:37.765Z,36.26
2022-08-23T08:09:41.162Z,35.38
2022-08-23T08:11:47.529Z,35.78
2022-08-23T08:13:51.839Z,37.07
2022-08-23T08:15:55.346Z,37.60
2022-08-23T08:17:58.700Z,36.12
2022-08-23T08:20:01.526Z,36.39
2022-08-23T08:22:05.724Z,36.74
2022-08-23T08:24:10.793Z,35.96
2022-08-23T08:26:14.424Z,34.49
2022-08-23T08:28:17.364Z,35.03
2022-08-23T08:30:20.199Z,34.62
2022-08-23T08:32:22.864Z,36.30
2022-08-23T08:34:25.977Z,35.44
2022-08-23T08:36:44.404Z,36.36
2022-08-23T08:38:48.469Z,36.52
2022-08-23T08:41:06.948Z,36.10
2022-08-23T08:43:37.587Z,35.29
2022-08-23T08:46:17.309Z,36.81
2022-08-23T08:48:24.131Z,36.10
2022-08-23T08:50:34.257Z,35.09
2022-08-23T08:52:44.526Z,35.97
2022-08-23T08:54:50.171Z,34.45
2022-08-23T08:57:01.376Z,36.37
2022-08-23T08:59:13.387Z,36.54
2022-08-23T09:01:17.767Z,35.53
2022-08-23T09:03:22.898Z,35.81
2022-08-23T09:05:31.882Z,34.37
2022-08-23T09:07:47.561Z,34.77
2022-08-23T09:10:15.536Z,35.83
2022-08-23T09:12:28.996Z,34.88
2022-08-23T09:15:01.238Z,35.57
2022-08-23T09:17:21.340Z,35.50
2022-08-23T09:19:25.670Z,35.62
2022-08-23T09:21:30.838Z,34.27
2022-08-23T09:23:42.537Z,34.67
2022-08-23T09:25:54.137Z,34.98
2022-08-23T09:27:57.031Z,34.87
2022-08-23T09:30:01.512Z,34.45
2022-08-23T09:32:07.818Z,33.70
2022-08-23T09:34:37.445Z,34.34
2022-08-23T09:36:40.262Z,34.00
2022-08-23T09:38:54.874Z,34.12
2022-08-23T09:40:58.793Z,34.24
2022-08-23T09:43:13.543Z,34.07
2022-08-23T09:45:35.860Z,33.44
2022-08-23T09:47:44.524Z,32.38
2022-08-23T09:49:48.724Z,33.00
2022-08-23T09:51:54.323Z,33.18
2022-08-23T09:54:10.911Z,31.69
2022-08-23T09:56:19.976Z,32.19
2022-08-23T09:58:47.399Z,32.98
2022-08-23T10:01:08.405Z,34.24
2022-08-23T10:03:27.626Z,34.10
2022-08-23T10:05:38.085Z,33.99
2022-08-23T10:07:53.149Z,34.44
2022-08-23T10:10:16.325Z,33.64
2022-08-23T10:12:18.962Z,33.67
2022-08-23T10:14:25.931Z,32.80
2022-08-23T10:16:58.555Z,33.19
2022-08-23T10:19:10.848Z,32.29
2022-08-23T10:21:54.652Z,31.87
2022-08-23T10:24:28.501Z,31.55
2022-08-23T10:26:33.302Z,31.66
2022-08-23T10:29:37.545Z,31.04
2022-08-23T10:32:05.355Z,29.96
2022-08-23T10:34:17.138Z,30.45
2022-08-23T10:36:28.955Z,29.39
2022-08-23T10:38:40.749Z,29.44
2022-08-23T10:40:55.006Z,28.95
2022-08-23T10:43:39.866Z,30.31
2022-08-23T10:45:46.920Z,30.69
2022-08-23T10:48:01.833Z,29.22
2022-08-23T10:50:09.345Z,29.28
2022-08-23T10:52:22.054Z,29.47
2022-08-23T10:54:46.367Z,30.30
2022-08-23T10:56:51.149Z,30.22
2022-08-23T10:59:02.773Z,29.27
2022-08-23T11:01:07.791Z,28.26
2022-08-23T11:03:30.324Z,27.45
2022-08-23T11:05:36.148Z,27.87
2022-08-23T11:07:43.557Z,29.56
2022-08-23T11:10:16.773Z,28.29
2022-08-23T11:12:27.499Z,28.88
2022-08-23T11:14:42.079Z,28.62
2022-08-23T11:16:46.968Z,28.31
2022-08-23T11:18:51.440Z,28.28
2022-08-23T11:20:58.712Z,28.46
2022-08-23T11:23:01.549Z,28.39
2022-08-23T11:25:26.826Z,28.07
2022-08-23T11:27:30.901Z,27.68
2022-08-23T11:29:36.069Z,27.36
2022-08-23T11:31:47.816Z,26.75
2022-08-23T11:34:09.262Z,27.13
2022-08-23T11:36:23.409Z,26.80
2022-08-23T11:38:43.968Z,27.21
2022-08-23T11:40:52.836Z,26.34
2022-08-23T11:43:06.464Z,26.84
2022-08-23T11:45:38.125Z,25.89
2022-08-23T11:47:44.532Z,26.02
2022-08-23T11:50:07.148Z,26.69
2022-08-23T11:52:12.790Z,25.72
2022-08-23T11:54:24.291Z,26.10
2022-08-23T11:56:51.482Z,25.12
2022-08-23T11:59:20.442Z,25.08
2022-08-23T12:01:34.213Z,25.45
2022-08-23T12:03:55.877Z,25.68
2022-08-23T12:06:12.636Z,24.58
2022-08-23T12:08:23.128Z,24.66
2022-08-23T12:10:46.582Z,24.51
2022-08-23T12:13:21.246Z,24.11
2022-08-23T12:16:03.296Z,23.94
2022-08-23T12:18:13.851Z,23.75
2022-08-23T12:20:28.636Z,24.01
2022-08-23T12:22:57.198Z,25.37
2022-08-23T12:25:04.772Z,24.49
2022-08-23T12:27:26.396Z,24.71
2022-08-23T12:37:45.842Z,23.77
2022-08-23T12:44:55.726Z,24.39
2022-08-23T12:47:12.942Z,22.96
2022-08-23T12:49:32.210Z,23.58
2022-08-23T12:51:53.460Z,23.71
2022-08-23T12:53:56.961Z,23.03
2022-08-23T12:56:32.116Z,22.94
2022-08-23T12:58:39.686Z,21.53
2022-08-23T13:00:53.214Z,23.01
2022-08-23T13:03:01.637Z,21.58
2022-08-23T13:05:30.381Z,21.90
2022-08-23T13:07:33.546Z,23.12
2022-08-23T13:09:39.945Z,22.55
2022-08-23T13:11:44.231Z,21.10
2022-08-23T13:13:47.681Z,21.50
2022-08-23T13:15:58.579Z,21.71
2022-08-23T13:18:02.198Z,21.15
2022-08-23T13:20:08.161Z,21.98
2022-08-23T13:22:22.691Z,20.75
2022-08-23T13:24:38.319Z,20.95
2022-08-23T13:26:44.162Z,21.43
2022-08-23T13:29:02.413Z,21.07
2022-08-23T13:31:10.553Z,21.86
2022-08-23T13:33:13.230Z,21.34
2022-08-23T13:35:38.282Z,21.72
2022-08-23T13:37:46.919Z,22.06
2022-08-23T13:39:54.436Z,21.40
2022-08-23T13:41:57.458Z,21.98
2022-08-23T13:44:07.137Z,20.01
2022-08-23T13:46:26.533Z,20.23
2022-08-23T13:48:33.072Z,20.09
2022-08-23T13:50:37.478Z,20.09
2022-08-23T13:53:03.080Z,20.75
2022-08-23T13:55:03.100Z,20.88
2022-08-23T13:57:14.279Z,21.52
2022-08-23T13:59:31.254Z,21.02
2022-08-23T14:01:40.015Z,20.39
2022-08-23T14:03:44.133Z,21.07
2022-08-23T14:05:46.875Z,21.63
2022-08-23T14:07:53.054Z,21.58
2022-08-23T14:09:57.463Z,20.56
2022-08-23T14:12:09.675Z,21.62
2022-08-23T14:16:39.836Z,20.72
2022-08-23T14:21:06.377Z,20.12
2022-08-23T14:23:12.084Z,20.25
2022-08-23T14:25:15.868Z,20.45
2022-08-23T14:27:18.611Z,20.37
2022-08-23T14:29:22.837Z,20.27
2022-08-23T14:31:25.875Z,20.37
2022-08-23T14:33:28.640Z,20.55
2022-08-23T14:35:31.860Z,21.20
2022-08-23T14:39:59.786Z,22.68
2022-08-23T14:42:03.727Z,22.45
2022-08-23T14:44:06.774Z,21.25
2022-08-23T14:46:09.650Z,20.80
2022-08-23T14:48:12.696Z,20.45
2022-08-23T14:50:15.610Z,22.49
2022-08-23T14:52:18.315Z,22.89
2022-08-23T14:54:24.268Z,24.45
2022-08-23T14:56:27.181Z,24.42
2022-08-23T14:58:29.715Z,24.69
2022-08-23T15:00:35.638Z,24.76
2022-08-23T15:02:38.443Z,24.94
2022-08-23T15:04:42.326Z,25.09
2022-08-23T15:07:06.816Z,25.17
2022-08-23T15:09:07.853Z,26.01
2022-08-23T15:13:41.590Z,25.91
2022-08-23T15:15:58.954Z,27.03
2022-08-23T15:18:07.001Z,27.68
2022-08-23T15:20:10.149Z,27.52
2022-08-23T15:22:21.392Z,27.35
2022-08-23T15:24:24.694Z,28.89
2022-08-23T15:26:30.806Z,29.22
2022-08-23T15:28:33.361Z,28.60
2022-08-23T15:30:36.790Z,28.70
2022-08-23T15:32:39.678Z,28.66
2022-08-23T15:34:54.925Z,29.64
2022-08-23T15:36:57.563Z,29.76
2022-08-23T15:39:00.469Z,29.72
2022-08-23T15:41:03.604Z,30.26
2022-08-23T15:43:06.230Z,29.69
2022-08-23T15:45:09.262Z,30.20
2022-08-23T15:47:41.616Z,30.42
2022-08-23T15:49:44.634Z,30.16
2022-08-23T15:51:47.347Z,29.96
2022-08-23T15:53:49.909Z,30.05
2022-08-23T15:55:53.672Z,31.16
2022-08-23T15:57:58.621Z,31.18
2022-08-23T16:00:01.234Z,30.65
2022-08-23T16:02:05.175Z,31.04
2022-08-23T16:04:09.177Z,32.04
2022-08-23T16:06:13.755Z,33.64
2022-08-23T16:08:22.352Z,32.01
2022-08-23T16:10:25.352Z,33.17
2022-08-23T16:12:31.766Z,32.63
2022-08-23T16:14:35.287Z,32.00
2022-08-23T16:16:40.668Z,31.88
2022-08-23T16:18:43.693Z,32.21
2022-08-23T16:20:46.466Z,32.30
2022-08-23T16:22:48.991Z,32.34
2022-08-23T16:24:51.655Z,32.36
2022-08-23T16:26:55.491Z,32.69
2022-08-23T16:28:59.682Z,32.70
2022-08-23T16:31:03.378Z,33.28
2022-08-23T16:33:06.114Z,33.97
2022-08-23T16:35:09.640Z,35.89
2022-08-23T16:37:12.197Z,36.77
2022-08-23T16:39:16.264Z,36.16
2022-08-23T16:41:19.509Z,36.58
2022-08-23T16:43:22.301Z,36.14
2022-08-23T16:45:25.831Z,36.99
2022-08-23T16:47:33.849Z,36.99
2022-08-23T16:49:36.416Z,37.94
2022-08-23T16:51:39.091Z,37.61
2022-08-23T16:53:42.143Z,38.25
2022-08-23T16:55:47.097Z,37.40
2022-08-23T16:57:49.709Z,38.18
2022-08-23T16:59:52.979Z,38.78
2022-08-23T17:02:04.525Z,38.66
2022-08-23T17:04:14.177Z,37.79
2022-08-23T17:06:17.395Z,38.27
2022-08-23T17:08:19.985Z,38.22
2022-08-23T17:10:23.010Z,39.20
2022-08-23T17:12:26.156Z,39.26
2022-08-23T17:14:28.799Z,39.63
2022-08-23T17:16:31.651Z,40.91
2022-08-23T17:18:34.822Z,40.32
2022-08-23T17:20:39.789Z,40.15
2022-08-23T17:22:43.191Z,39.31
2022-08-23T17:24:45.762Z,39.56
2022-08-23T17:26:50.347Z,40.01
2022-08-23T17:28:52.988Z,40.07
2022-08-23T17:30:55.742Z,40.20
2022-08-23T17:32:59.019Z,39.85
2022-08-23T17:35:02.236Z,39.94
2022-08-23T17:37:15.993Z,39.74
2022-08-23T17:39:23.329Z,39.73
2022-08-23T17:41:28.638Z,39.83
2022-08-23T17:43:50.033Z,39.76
2022-08-23T17:45:54.047Z,39.62
2022-08-23T17:47:59.306Z,38.50
2022-08-23T17:50:04.719Z,39.44
2022-08-23T17:52:09.426Z,38.94
2022-08-23T17:54:16.794Z,37.88
2022-08-23T17:56:20.610Z,37.95
2022-08-23T17:58:23.754Z,37.66
2022-08-23T18:00:29.223Z,37.88
2022-08-23T18:02:32.313Z,39.48
2022-08-23T18:04:35.513Z,39.83
2022-08-23T18:06:38.454Z,39.96
2022-08-23T18:08:41.634Z,40.95
2022-08-23T18:10:44.378Z,41.12
2022-08-23T18:12:46.987Z,41.28
2022-08-23T18:14:50.961Z,41.71
2022-08-23T18:16:54.635Z,41.48
2022-08-23T18:18:58.360Z,41.59
2022-08-23T18:21:06.601Z,41.53
2022-08-23T18:23:09.322Z,41.64
2022-08-23T18:25:14.346Z,40.95
2022-08-23T18:27:35.694Z,40.04
2022-08-23T18:29:39.339Z,39.91
2022-08-23T18:31:44.147Z,39.71
2022-08-23T18:33:47.453Z,39.49
2022-08-23T18:35:51.677Z,39.79
2022-08-23T18:37:54.690Z,39.97
2022-08-23T18:40:16.071Z,39.96
2022-08-23T18:42:20.926Z,39.89
2022-08-23T18:44:23.640Z,40.34
2022-08-23T18:46:31.731Z,40.56
2022-08-23T18:48:36.793Z,41.34
2022-08-23T18:50:41.713Z,42.12
2022-08-23T18:52:44.670Z,42.07
2022-08-23T18:54:47.278Z,41.73
2022-08-23T18:56:49.821Z,41.76
2022-08-23T18:58:53.114Z,41.43
2022-08-23T19:00:56.372Z,41.69
2022-08-23T19:02:59.555Z,42.11
2022-08-23T19:05:03.827Z,42.29
2022-08-23T19:07:06.448Z,42.52
2022-08-23T19:09:11.381Z,42.50
2022-08-23T19:11:16.177Z,42.22
2022-08-23T19:13:18.747Z,42.20
2022-08-23T19:15:22.241Z,42.05
2022-08-23T19:17:24.986Z,42.03
2022-08-23T19:19:27.848Z,42.45
2022-08-23T19:21:31.035Z,42.28
2022-08-23T19:23:34.794Z,42.50
2022-08-23T19:25:38.731Z,42.56
2022-08-23T19:27:41.450Z,42.60
2022-08-23T19:29:44.319Z,43.15
2022-08-23T19:31:48.444Z,43.55
2022-08-23T19:33:51.634Z,43.52
2022-08-23T19:35:55.413Z,43.34
2022-08-23T19:38:01.339Z,43.43
2022-08-23T19:40:05.414Z,42.97
2022-08-23T19:42:11.923Z,42.93
2022-08-23T19:44:15.525Z,42.85
2022-08-23T19:46:20.461Z,42.81
2022-08-23T19:48:23.873Z,42.91
2022-08-23T19:50:27.709Z,43.10
2022-08-23T19:52:30.229Z,43.18
2022-08-23T19:54:33.205Z,43.15
2022-08-23T19:56:43.433Z,43.99
2022-08-23T19:58:47.353Z,43.81
2022-08-23T20:00:50.171Z,43.38
2022-08-23T20:02:53.257Z,43.16
2022-08-23T20:04:56.691Z,43.31
2022-08-23T20:07:01.324Z,43.72
2022-08-23T20:09:06.218Z,44.33
2022-08-23T20:11:10.502Z,44.45
2022-08-23T20:13:14.308Z,44.29
2022-08-23T20:15:17.057Z,44.67
2022-08-23T20:17:19.804Z,45.07
2022-08-23T20:19:22.609Z,44.79
2022-08-23T20:21:26.240Z,44.55
2022-08-23T20:23:47.850Z,44.42
2022-08-23T20:25:50.649Z,44.63
2022-08-23T20:27:53.222Z,44.58
2022-08-23T20:29:55.796Z,44.79
2022-08-23T20:32:06.468Z,44.97
2022-08-23T20:34:09.345Z,45.38
2022-08-23T20:36:12.690Z,45.82
2022-08-23T20:38:32.862Z,45.81
2022-08-23T20:40:36.542Z,45.68
2022-08-23T20:42:39.101Z,45.75
2022-08-23T20:44:42.326Z,45.79
2022-08-23T20:46:45.075Z,45.73
2022-08-23T20:48:48.169Z,45.22
2022-08-23T20:50:50.887Z,45.57
2022-08-23T20:52:54.159Z,45.49
2022-08-23T20:54:56.817Z,45.77
2022-08-23T20:56:59.474Z,45.87
2022-08-23T20:59:05.215Z,45.83
2022-08-23T21:01:09.360Z,46.26
2022-08-23T21:03:14.313Z,46.86
2022-08-23T21:05:17.178Z,47.77
2022-08-23T21:07:19.799Z,48.57
2022-08-23T21:09:29.537Z,50.11
2022-08-23T21:11:32.443Z,50.79
2022-08-23T21:13:35.260Z,51.19
2022-08-23T21:15:37.856Z,51.43
2022-08-23T21:17:40.800Z,51.38
2022-08-23T21:19:44.387Z,51.38
2022-08-23T21:21:47.000Z,51.58
2022-08-23T21:23:50.549Z,51.73
2022-08-23T21:25:57.444Z,51.66
2022-08-23T21:28:04.101Z,51.62
2022-08-23T21:30:08.971Z,51.75
2022-08-23T21:32:11.747Z,51.90
2022-08-23T21:34:14.444Z,51.68
2022-08-23T21:36:19.462Z,51.87
2022-08-23T21:38:22.246Z,51.91
2022-08-23T21:40:25.367Z,51.91
2022-08-23T21:42:27.920Z,51.97
2022-08-23T21:44:30.500Z,52.44
2022-08-23T21:46:34.269Z,52.21
2022-08-23T21:48:36.943Z,52.92
2022-08-23T21:50:39.473Z,53.58
2022-08-23T21:52:42.223Z,53.43
2022-08-23T21:54:44.798Z,53.43
2022-08-23T21:56:47.853Z,53.53
2022-08-23T21:58:50.846Z,53.42
2022-08-23T22:00:53.494Z,53.38
2022-08-23T22:02:56.135Z,53.42
2022-08-23T22:04:58.906Z,53.53
2022-08-23T22:07:01.481Z,53.49
2022-08-23T22:09:06.933Z,53.43
2022-08-23T22:11:10.447Z,53.13
2022-08-23T22:13:13.572Z,52.68
2022-08-23T22:15:17.610Z,52.33
2022-08-23T22:17:20.699Z,52.46
2022-08-23T22:19:23.350Z,52.93
2022-08-23T22:21:25.952Z,53.05
2022-08-23T22:23:30.442Z,53.13
2022-08-23T22:25:33.383Z,53.02
2022-08-23T22:27:36.509Z,53.78
2022-08-23T22:29:39.915Z,53.93
2022-08-23T22:31:48.079Z,54.37
2022-08-23T22:33:51.047Z,54.25
2022-08-23T22:35:53.997Z,54.22
2022-08-23T22:38:13.225Z,54.19
2022-08-23T22:40:18.954Z,54.82
2022-08-23T22:42:21.810Z,55.03
2022-08-23T22:44:24.530Z,55.22
2022-08-23T22:46:30.310Z,55.43
2022-08-23T22:48:35.268Z,55.16
2022-08-23T22:50:37.936Z,55.59
2022-08-23T22:52:40.606Z,55.53
2022-08-23T22:54:43.686Z,55.76
2022-08-23T22:56:50.114Z,55.88
2022-08-23T22:58:53.861Z,55.67
2022-08-23T23:00:56.529Z,56.32
2022-08-23T23:02:59.730Z,56.31
2022-08-23T23:05:02.481Z,56.63
2022-08-23T23:07:06.070Z,56.87
2022-08-23T23:09:10.117Z,57.20
2022-08-23T23:11:14.276Z,56.74
2022-08-23T23:13:17.000Z,57.15
2022-08-23T23:15:19.969Z,57.29
2022-08-23T23:17:22.564Z,57.87
2022-08-23T23:19:45.781Z,58.03
2022-08-23T23:21:52.513Z,58.38
2022-08-23T23:23:55.418Z,58.70
2022-08-23T23:25:58.782Z,58.84
2022-08-23T23:28:02.814Z,58.73
2022-08-23T23:30:05.894Z,58.67
2022-08-23T23:32:08.550Z,58.17
2022-08-23T23:34:11.430Z,58.89
2022-08-23T23:36:16.514Z,59.76
2022-08-23T23:38:20.318Z,59.42
2022-08-23T23:40:24.892Z,59.44
2022-08-23T23:42:27.523Z,58.92
2022-08-23T23:44:30.923Z,59.73
2022-08-23T23:46:35.391Z,61.21
2022-08-23T23:48:39.388Z,62.38
2022-08-23T23:50:46.631Z,63.40
2022-08-23T23:52:49.746Z,63.97
2022-08-23T23:54:52.307Z,64.82
2022-08-23T23:56:55.681Z,63.62
2022-08-23T23:58:59.486Z,62.18
